createdAt,value
2023-04-20T00:02:20.839Z,150419.22
2023-04-20T00:04:46.909Z,150419.22
2023-04-20T00:07:12.714Z,150406.59
2023-04-20T00:09:38.526Z,150399.03
2023-04-20T00:12:04.718Z,150390.19
2023-04-20T00:14:30.570Z,150382.63
2023-04-20T00:16:56.437Z,150371.25
2023-04-20T00:19:22.529Z,150367.50
2023-04-20T00:21:48.563Z,150348.56
2023-04-20T00:24:14.421Z,150313.22
2023-04-20T00:26:40.352Z,150332.16
2023-04-20T00:29:06.144Z,150308.16
2023-04-20T00:31:32.186Z,150275.34
2023-04-20T00:33:58.001Z,150298.09
2023-04-20T00:36:23.754Z,150330.91
2023-04-20T00:38:49.598Z,150333.41
2023-04-20T00:41:15.671Z,150250.09
2023-04-20T00:43:52.211Z,150275.34
2023-04-20T00:46:19.271Z,150284.19
2023-04-20T00:48:45.695Z,150300.59
2023-04-20T00:51:12.362Z,150300.59
2023-04-20T00:53:38.452Z,150291.78
2023-04-20T00:56:05.737Z,150347.31
2023-04-20T00:58:31.584Z,150300.59
2023-04-20T01:00:57.363Z,150263.97
2023-04-20T01:03:23.360Z,150287.97
2023-04-20T01:05:49.619Z,150324.56
2023-04-20T01:08:15.443Z,150305.63
2023-04-20T01:10:41.313Z,150258.94
2023-04-20T01:13:07.108Z,150289.22
2023-04-20T01:15:34.518Z,150295.56
2023-04-20T01:18:00.364Z,150323.28
2023-04-20T01:20:26.166Z,150306.88
2023-04-20T01:22:54.968Z,150294.31
2023-04-20T01:25:21.326Z,150314.50
2023-04-20T01:27:47.888Z,150277.84
2023-04-20T01:30:14.473Z,150287.97
2023-04-20T01:32:40.645Z,150294.31
2023-04-20T01:35:08.030Z,150275.34
2023-04-20T01:37:34.085Z,150282.94
2023-04-20T01:40:00.264Z,150271.50
2023-04-20T01:42:26.281Z,150290.47
2023-04-20T01:44:52.112Z,150318.25
2023-04-20T01:47:18.384Z,150293.06
2023-04-20T01:49:44.474Z,150269.00
2023-04-20T01:52:10.220Z,150260.19
2023-04-20T01:54:36.767Z,150267.75
2023-04-20T01:57:03.117Z,150252.59
2023-04-20T01:59:29.092Z,150262.72
2023-04-20T02:01:55.047Z,150277.84
2023-04-20T02:04:20.985Z,150272.81
2023-04-20T02:06:46.960Z,150276.59
2023-04-20T02:09:12.823Z,150247.56
2023-04-20T02:11:41.535Z,150262.72
2023-04-20T02:14:07.349Z,150265.22
2023-04-20T02:16:33.160Z,150247.56
2023-04-20T02:18:59.032Z,150287.97
2023-04-20T02:21:25.030Z,150251.34
2023-04-20T02:23:50.785Z,150269.00
2023-04-20T02:26:16.541Z,150277.84
2023-04-20T02:28:42.393Z,150274.09
2023-04-20T02:31:08.574Z,150257.69
2023-04-20T02:33:34.408Z,150231.16
2023-04-20T02:36:00.251Z,150198.38
2023-04-20T02:38:26.437Z,150208.47
2023-04-20T02:40:52.575Z,150242.53
2023-04-20T02:43:18.422Z,150241.28
2023-04-20T02:45:44.170Z,150241.28
2023-04-20T02:48:10.030Z,150229.91
2023-04-20T02:50:37.260Z,150257.69
2023-04-20T02:53:03.572Z,150242.53
2023-04-20T02:55:29.457Z,150190.81
2023-04-20T02:57:55.263Z,150174.41
2023-04-20T03:00:21.136Z,150129.00
2023-04-20T03:02:47.309Z,150121.47
2023-04-20T03:05:13.338Z,150106.31
2023-04-20T03:07:39.094Z,150103.81
2023-04-20T03:10:05.634Z,150106.31
2023-04-20T03:12:31.399Z,150084.91
2023-04-20T03:14:57.357Z,150078.59
2023-04-20T03:17:23.277Z,150068.50
2023-04-20T03:19:49.742Z,150073.53
2023-04-20T03:22:18.481Z,150029.44
2023-04-20T03:24:44.720Z,150031.94
2023-04-20T03:27:10.530Z,150034.47
2023-04-20T03:29:36.277Z,149987.84
2023-04-20T03:32:02.874Z,150020.59
2023-04-20T03:34:28.722Z,150011.78
2023-04-20T03:36:54.491Z,149987.84
2023-04-20T03:39:20.417Z,149952.56
2023-04-20T03:41:46.412Z,149950.06
2023-04-20T03:44:13.420Z,149995.41
2023-04-20T03:46:39.193Z,149961.38
2023-04-20T03:49:05.083Z,149942.47
2023-04-20T03:51:31.633Z,149936.19
2023-04-20T03:53:57.390Z,149962.63
2023-04-20T03:56:23.313Z,149979.00
2023-04-20T03:58:49.207Z,149970.22
2023-04-20T04:01:15.282Z,149971.47
2023-04-20T04:03:41.412Z,149936.19
2023-04-20T04:06:08.446Z,149989.09
2023-04-20T04:08:34.198Z,149957.59
2023-04-20T04:10:59.991Z,149967.66
2023-04-20T04:13:26.123Z,149943.72
2023-04-20T04:15:52.101Z,149977.75
2023-04-20T04:18:17.967Z,149934.91
2023-04-20T04:20:43.867Z,149904.66
2023-04-20T04:23:09.724Z,149908.44
2023-04-20T04:25:39.692Z,149909.69
2023-04-20T04:28:06.566Z,149899.63
2023-04-20T04:30:32.686Z,149894.56
2023-04-20T04:32:59.041Z,149855.50
2023-04-20T04:35:25.927Z,149879.47
2023-04-20T04:37:54.653Z,149888.28
2023-04-20T04:40:20.581Z,149894.56
2023-04-20T04:42:46.933Z,149931.09
2023-04-20T04:45:12.867Z,149882.00
2023-04-20T04:47:40.509Z,149917.28
2023-04-20T04:50:08.558Z,149894.56
2023-04-20T04:52:34.634Z,149887.03
2023-04-20T04:55:00.538Z,149854.25
2023-04-20T04:57:26.600Z,149908.44
2023-04-20T04:59:53.074Z,149929.84
2023-04-20T05:02:19.172Z,149928.59
2023-04-20T05:04:46.115Z,149919.78
2023-04-20T05:07:13.407Z,149931.09
2023-04-20T05:09:39.514Z,149921.03
2023-04-20T05:12:06.110Z,149947.47
2023-04-20T05:14:32.774Z,149962.63
2023-04-20T05:16:59.702Z,149961.38
2023-04-20T05:19:25.549Z,149985.28
2023-04-20T05:21:51.393Z,149965.13
2023-04-20T05:24:18.799Z,149950.06
2023-04-20T05:26:45.419Z,149937.44
2023-04-20T05:29:11.621Z,149931.09
2023-04-20T05:31:37.818Z,149921.03
2023-04-20T05:34:03.676Z,149961.38
2023-04-20T05:36:30.183Z,149966.38
2023-04-20T05:38:56.265Z,149953.81
2023-04-20T05:41:26.668Z,149958.84
2023-04-20T05:43:53.732Z,149992.88
2023-04-20T05:46:20.156Z,149980.25
2023-04-20T05:48:46.083Z,149955.06
2023-04-20T05:51:12.370Z,149952.56
2023-04-20T05:53:38.354Z,149948.75
2023-04-20T05:56:07.154Z,149958.84
2023-04-20T05:58:34.695Z,149971.47
2023-04-20T06:01:02.450Z,149999.16
2023-04-20T06:03:28.600Z,149965.13
2023-04-20T06:05:54.574Z,149975.22
2023-04-20T06:08:20.443Z,149918.53
2023-04-20T06:10:46.307Z,149910.94
2023-04-20T06:13:12.131Z,149941.19
2023-04-20T06:15:37.961Z,149938.69
2023-04-20T06:18:04.284Z,149982.78
2023-04-20T06:20:30.372Z,150015.56
2023-04-20T06:22:56.249Z,150016.81
2023-04-20T06:25:22.088Z,149975.22
2023-04-20T06:27:48.490Z,150002.94
2023-04-20T06:30:15.597Z,149995.41
2023-04-20T06:32:41.624Z,150018.06
2023-04-20T06:35:07.889Z,149943.72
2023-04-20T06:37:37.191Z,149979.00
2023-04-20T06:40:10.159Z,149972.72
2023-04-20T06:42:36.651Z,149970.22
2023-04-20T06:45:03.508Z,149991.63
2023-04-20T06:47:32.968Z,149968.94
2023-04-20T06:50:00.638Z,149980.25
2023-04-20T06:52:27.347Z,149958.84
2023-04-20T06:54:53.396Z,149962.63
2023-04-20T06:57:19.401Z,149950.06
2023-04-20T06:59:45.376Z,149967.66
2023-04-20T07:02:11.338Z,149958.84
2023-04-20T07:04:37.218Z,149962.63
2023-04-20T07:07:03.167Z,150005.50
2023-04-20T07:09:29.004Z,150013.03
2023-04-20T07:11:55.602Z,150036.97
2023-04-20T07:14:21.463Z,150063.47
2023-04-20T07:16:47.327Z,150092.44
2023-04-20T07:19:13.179Z,150079.88
2023-04-20T07:21:38.956Z,150116.41
2023-04-20T07:24:05.224Z,150036.97
2023-04-20T07:26:31.005Z,150016.81
2023-04-20T07:28:56.783Z,150038.22
2023-04-20T07:31:22.656Z,150048.34
2023-04-20T07:33:48.454Z,150081.13
2023-04-20T07:36:14.355Z,150088.66
2023-04-20T07:38:40.321Z,150108.84
2023-04-20T07:41:09.449Z,150074.78
2023-04-20T07:43:35.290Z,150106.31
2023-04-20T07:46:01.106Z,150036.97
2023-04-20T07:48:26.935Z,150005.50
2023-04-20T07:50:52.877Z,150011.78
2023-04-20T07:53:18.697Z,150074.78
2023-04-20T07:55:44.471Z,150107.56
2023-04-20T07:58:11.346Z,150055.88
2023-04-20T08:00:37.251Z,150073.53
2023-04-20T08:03:04.401Z,150097.50
2023-04-20T08:05:30.908Z,150083.63
2023-04-20T08:07:58.105Z,150112.66
2023-04-20T08:10:24.068Z,150125.22
2023-04-20T08:12:52.593Z,150105.06
2023-04-20T08:15:18.680Z,150134.06
2023-04-20T08:17:44.628Z,150117.69
2023-04-20T08:20:10.696Z,150118.94
2023-04-20T08:22:37.785Z,150106.31
2023-04-20T08:25:04.054Z,150082.38
2023-04-20T08:27:30.356Z,150151.72
2023-04-20T08:29:56.398Z,150197.09
2023-04-20T08:32:24.519Z,150144.13
2023-04-20T08:34:50.433Z,150204.69
2023-04-20T08:37:16.323Z,150214.75
2023-04-20T08:39:42.078Z,150180.72
2023-04-20T08:42:07.954Z,150217.28
2023-04-20T08:44:33.760Z,150202.19
2023-04-20T08:47:00.000Z,150144.13
2023-04-20T08:49:31.118Z,150103.81
2023-04-20T08:51:56.875Z,150132.81
2023-04-20T08:54:24.757Z,150137.84
2023-04-20T08:56:50.870Z,150055.88
2023-04-20T08:59:16.709Z,150040.78
2023-04-20T09:01:44.072Z,150068.50
2023-04-20T09:04:26.344Z,150207.22
2023-04-20T09:06:54.983Z,150319.53
2023-04-20T09:09:24.845Z,150388.94
2023-04-20T09:12:09.569Z,150450.75
2023-04-20T09:14:46.758Z,150507.59
2023-04-20T09:17:14.625Z,150501.25
2023-04-20T09:19:43.464Z,150481.06
2023-04-20T09:22:09.535Z,150494.94
2023-04-20T09:24:37.316Z,150503.75
2023-04-20T09:27:14.982Z,150564.41
2023-04-20T09:29:41.011Z,150604.78
2023-04-20T09:32:06.781Z,150616.16
2023-04-20T09:34:45.715Z,150570.69
2023-04-20T09:37:15.872Z,150598.50
2023-04-20T09:39:43.624Z,150611.09
2023-04-20T09:42:12.266Z,150553.00
2023-04-20T09:44:38.856Z,150503.75
2023-04-20T09:47:05.910Z,150489.91
2023-04-20T09:49:31.938Z,150506.34
2023-04-20T09:52:00.952Z,150520.19
2023-04-20T09:54:28.140Z,150531.56
2023-04-20T09:56:54.356Z,150482.31
2023-04-20T09:59:20.891Z,150513.88
2023-04-20T10:01:47.373Z,150527.78
2023-04-20T10:04:13.762Z,150549.25
2023-04-20T10:06:52.029Z,150578.28
2023-04-20T10:09:25.515Z,150559.31
2023-04-20T10:11:54.639Z,150551.75
2023-04-20T10:14:25.395Z,150559.31
2023-04-20T10:16:58.742Z,150496.22
2023-04-20T10:19:35.090Z,150473.50
2023-04-20T10:22:01.778Z,150434.38
2023-04-20T10:24:29.530Z,150420.50
2023-04-20T10:26:56.094Z,150397.72
2023-04-20T10:29:26.576Z,150443.19
2023-04-20T10:31:53.588Z,150522.69
2023-04-20T10:34:32.522Z,150602.28
2023-04-20T10:37:09.193Z,150670.47
2023-04-20T10:39:37.003Z,150608.56
2023-04-20T10:42:03.358Z,150579.56
2023-04-20T10:44:30.269Z,150549.25
2023-04-20T10:46:56.529Z,150542.94
2023-04-20T10:49:26.727Z,150547.97
2023-04-20T10:51:56.935Z,150517.66
2023-04-20T10:54:22.828Z,150479.78
2023-04-20T10:56:51.126Z,150556.78
2023-04-20T10:59:19.486Z,150614.91
2023-04-20T11:01:46.321Z,150700.75
2023-04-20T11:04:12.720Z,150799.31
2023-04-20T11:06:44.040Z,150887.78
2023-04-20T11:09:25.873Z,150742.47
2023-04-20T11:11:59.466Z,150724.78
2023-04-20T11:14:25.456Z,150698.25
2023-04-20T11:16:52.590Z,150704.59
2023-04-20T11:19:32.154Z,150736.13
2023-04-20T11:21:58.627Z,150889.09
2023-04-20T11:24:29.983Z,150938.41
2023-04-20T11:26:57.367Z,150963.66
2023-04-20T11:29:41.287Z,150881.44
2023-04-20T11:32:11.113Z,150997.81
2023-04-20T11:34:38.874Z,151066.09
2023-04-20T11:37:09.364Z,151139.44
2023-04-20T11:39:36.290Z,151023.06
2023-04-20T11:42:02.909Z,150982.63
2023-04-20T11:44:28.843Z,150986.41
2023-04-20T11:46:58.008Z,150966.19
2023-04-20T11:49:26.285Z,150872.63
2023-04-20T11:51:55.212Z,150817.00
2023-04-20T11:54:24.710Z,150803.09
2023-04-20T11:56:50.758Z,150811.97
2023-04-20T11:59:19.095Z,151016.75
2023-04-20T12:01:45.253Z,150969.97
2023-04-20T12:04:11.246Z,150952.28
2023-04-20T12:06:37.152Z,151002.84
2023-04-20T12:09:05.446Z,150923.22
2023-04-20T12:11:31.576Z,150803.09
2023-04-20T12:13:57.784Z,150872.63
2023-04-20T12:16:23.588Z,151131.81
2023-04-20T12:18:49.520Z,151201.41
2023-04-20T12:21:15.399Z,151054.69
2023-04-20T12:23:42.045Z,150841.00
2023-04-20T12:26:08.962Z,150817.00
2023-04-20T12:28:34.765Z,150859.97
2023-04-20T12:31:01.686Z,150889.09
2023-04-20T12:33:27.561Z,150935.84
2023-04-20T12:35:54.705Z,151105.28
2023-04-20T12:38:20.500Z,151105.28
2023-04-20T12:40:46.334Z,150997.81
2023-04-20T12:43:12.083Z,150923.22
2023-04-20T12:45:37.954Z,150866.31
2023-04-20T12:48:04.182Z,150805.63
2023-04-20T12:50:30.116Z,150805.63
2023-04-20T12:52:57.613Z,150738.66
2023-04-20T12:55:25.473Z,150715.94
2023-04-20T12:57:51.443Z,150662.88
2023-04-20T13:00:17.772Z,150684.34
2023-04-20T13:02:43.771Z,150684.34
2023-04-20T13:05:12.872Z,150724.78
2023-04-20T13:07:38.666Z,150861.22
2023-04-20T13:10:05.293Z,151190.03
2023-04-20T13:12:31.117Z,151400.13
2023-04-20T13:14:56.917Z,151443.19
2023-04-20T13:17:22.813Z,151354.56
2023-04-20T13:19:49.680Z,151400.13
2023-04-20T13:22:18.680Z,151535.59
2023-04-20T13:24:44.891Z,151392.53
2023-04-20T13:27:11.019Z,151289.97
2023-04-20T13:29:37.791Z,151287.44
2023-04-20T13:32:04.049Z,151312.72
2023-04-20T13:34:30.162Z,151445.72
2023-04-20T13:36:57.542Z,151525.47
2023-04-20T13:39:23.528Z,151579.91
2023-04-20T13:41:49.374Z,151362.16
2023-04-20T13:44:15.707Z,151302.63
2023-04-20T13:46:43.409Z,151550.81
2023-04-20T13:49:11.470Z,151737.00
2023-04-20T13:51:39.871Z,151773.78
2023-04-20T13:54:06.690Z,151692.63
2023-04-20T13:56:35.327Z,151450.75
2023-04-20T13:59:03.267Z,151431.78
2023-04-20T14:01:30.339Z,151524.19
2023-04-20T14:03:56.439Z,151491.25
2023-04-20T14:06:22.381Z,151462.16
2023-04-20T14:08:48.576Z,151340.59
2023-04-20T14:11:14.604Z,151343.13
2023-04-20T14:13:40.865Z,151360.88
2023-04-20T14:16:11.800Z,151377.34
2023-04-20T14:18:38.403Z,151387.50
2023-04-20T14:21:04.497Z,151332.97
2023-04-20T14:23:30.565Z,151384.91
2023-04-20T14:25:57.239Z,151417.84
2023-04-20T14:28:23.245Z,151577.38
2023-04-20T14:30:50.678Z,151579.91
2023-04-20T14:33:16.713Z,151619.16
2023-04-20T14:35:42.853Z,151586.28
2023-04-20T14:38:08.634Z,151593.84
2023-04-20T14:40:34.609Z,151661.00
2023-04-20T14:43:00.438Z,151801.69
2023-04-20T14:45:26.224Z,151846.03
2023-04-20T14:47:56.259Z,151844.75
2023-04-20T14:50:31.085Z,151928.44
2023-04-20T14:52:56.947Z,151865.03
2023-04-20T14:55:24.866Z,151923.34
2023-04-20T14:57:56.108Z,151993.06
2023-04-20T15:00:27.426Z,151867.56
2023-04-20T15:02:55.844Z,151909.38
2023-04-20T15:05:24.382Z,151929.69
2023-04-20T15:07:50.666Z,151960.09
2023-04-20T15:10:20.423Z,151938.56
2023-04-20T15:12:47.162Z,151979.13
2023-04-20T15:15:13.588Z,152008.28
2023-04-20T15:17:39.713Z,152066.63
2023-04-20T15:20:06.918Z,151917.00
2023-04-20T15:22:32.731Z,151918.28
2023-04-20T15:24:58.559Z,151756.03
2023-04-20T15:27:24.369Z,151691.38
2023-04-20T15:29:50.382Z,151805.47
2023-04-20T15:32:16.440Z,151946.19
2023-04-20T15:34:42.340Z,152005.75
2023-04-20T15:37:08.734Z,152108.56
2023-04-20T15:39:34.620Z,152056.50
2023-04-20T15:42:02.152Z,151924.59
2023-04-20T15:44:28.806Z,151856.19
2023-04-20T15:46:55.378Z,151799.13
2023-04-20T15:49:21.300Z,151802.97
2023-04-20T15:51:47.209Z,151795.31
2023-04-20T15:54:13.498Z,151735.72
2023-04-20T15:56:39.262Z,151813.06
2023-04-20T15:59:05.111Z,151813.06
2023-04-20T16:01:32.880Z,151786.47
2023-04-20T16:03:59.306Z,151666.03
2023-04-20T16:06:25.710Z,151619.16
2023-04-20T16:08:53.269Z,151428.00
2023-04-20T16:11:21.103Z,151353.28
2023-04-20T16:13:46.935Z,151302.63
2023-04-20T16:16:12.797Z,151278.56
2023-04-20T16:18:38.756Z,151148.28
2023-04-20T16:21:07.338Z,151067.34
2023-04-20T16:23:33.178Z,151025.59
2023-04-20T16:25:59.044Z,150934.56
2023-04-20T16:28:25.672Z,150794.28
2023-04-20T16:30:51.532Z,150737.38
2023-04-20T16:33:17.885Z,150683.06
2023-04-20T16:35:43.819Z,150659.09
2023-04-20T16:38:10.782Z,150651.53
2023-04-20T16:40:36.851Z,150669.22
2023-04-20T16:43:03.214Z,150669.22
2023-04-20T16:45:29.715Z,150709.63
2023-04-20T16:47:57.357Z,150679.28
2023-04-20T16:50:23.278Z,150654.06
2023-04-20T16:52:49.383Z,150585.84
2023-04-20T16:55:15.582Z,150536.59
2023-04-20T16:57:41.619Z,150515.16
2023-04-20T17:00:10.170Z,150469.69
2023-04-20T17:02:36.724Z,150464.63
2023-04-20T17:05:04.152Z,150476.03
2023-04-20T17:07:30.106Z,150493.69
2023-04-20T17:09:56.127Z,150527.78
2023-04-20T17:12:22.149Z,150507.59
2023-04-20T17:14:48.064Z,150580.81
2023-04-20T17:17:14.016Z,150575.72
2023-04-20T17:19:40.042Z,150517.66
2023-04-20T17:22:06.688Z,150537.84
2023-04-20T17:24:32.540Z,150579.56
2023-04-20T17:26:58.639Z,150534.06
2023-04-20T17:29:25.037Z,150522.69
2023-04-20T17:31:51.139Z,150544.19
2023-04-20T17:34:18.967Z,150516.41
2023-04-20T17:36:46.086Z,150532.81
2023-04-20T17:39:12.254Z,150549.25
2023-04-20T17:41:38.404Z,150539.13
2023-04-20T17:44:04.219Z,150478.53
2023-04-20T17:46:31.264Z,150537.84
2023-04-20T17:48:57.212Z,150540.38
2023-04-20T17:51:23.076Z,150540.38
2023-04-20T17:53:48.901Z,150559.31
2023-04-20T17:56:14.769Z,150521.44
2023-04-20T17:58:40.521Z,150494.94
2023-04-20T18:01:07.371Z,150575.72
2023-04-20T18:03:33.289Z,150536.59
2023-04-20T18:05:59.224Z,150517.66
2023-04-20T18:08:25.183Z,150517.66
2023-04-20T18:10:51.037Z,150529.03
2023-04-20T18:13:16.979Z,150539.13
2023-04-20T18:15:43.131Z,150522.69
2023-04-20T18:18:08.990Z,150526.53
2023-04-20T18:20:34.894Z,150513.88
2023-04-20T18:23:01.170Z,150520.19
2023-04-20T18:25:27.046Z,150517.66
2023-04-20T18:27:52.918Z,150482.31
2023-04-20T18:30:18.706Z,150454.56
2023-04-20T18:32:44.577Z,150486.09
2023-04-20T18:35:10.549Z,150517.66
2023-04-20T18:37:36.573Z,150496.22
2023-04-20T18:40:05.393Z,150530.31
2023-04-20T18:42:31.213Z,150512.63
2023-04-20T18:44:57.164Z,150497.47
2023-04-20T18:47:24.843Z,150487.34
2023-04-20T18:49:50.774Z,150486.09
2023-04-20T18:52:18.561Z,150463.38
2023-04-20T18:54:45.649Z,150468.41
2023-04-20T18:57:11.591Z,150446.97
2023-04-20T18:59:37.435Z,150445.72
2023-04-20T19:02:03.379Z,150436.91
2023-04-20T19:04:29.443Z,150449.50
2023-04-20T19:06:55.429Z,150472.25
2023-04-20T19:09:21.297Z,150474.75
2023-04-20T19:11:48.850Z,150462.13
2023-04-20T19:14:14.818Z,150425.53
2023-04-20T19:16:40.718Z,150404.06
2023-04-20T19:19:07.073Z,150435.63
2023-04-20T19:21:33.261Z,150467.16
2023-04-20T19:23:59.190Z,150482.31
2023-04-20T19:26:25.183Z,150479.78
2023-04-20T19:28:51.180Z,150468.41
2023-04-20T19:31:16.999Z,150498.72
2023-04-20T19:33:42.813Z,150487.34
2023-04-20T19:36:08.643Z,150484.84
2023-04-20T19:38:36.684Z,150497.47
2023-04-20T19:41:03.297Z,150433.06
2023-04-20T19:43:31.174Z,150446.97
2023-04-20T19:45:57.899Z,150431.81
2023-04-20T19:48:24.309Z,150449.50
2023-04-20T19:50:50.942Z,150446.97
2023-04-20T19:53:18.471Z,150452.00
2023-04-20T19:55:44.605Z,150439.41
2023-04-20T19:58:10.674Z,150424.25
2023-04-20T20:00:37.185Z,150439.41
2023-04-20T20:03:07.060Z,150450.75
2023-04-20T20:05:34.045Z,150423.00
2023-04-20T20:08:00.049Z,150430.56
2023-04-20T20:10:26.029Z,150431.81
2023-04-20T20:12:51.905Z,150404.06
2023-04-20T20:15:17.817Z,150404.06
2023-04-20T20:17:45.890Z,150411.63
2023-04-20T20:20:12.335Z,150405.34
2023-04-20T20:22:38.181Z,150400.31
2023-04-20T20:25:04.473Z,150417.97
2023-04-20T20:27:30.420Z,150401.56
2023-04-20T20:29:56.294Z,150388.94
2023-04-20T20:32:22.190Z,150401.56
2023-04-20T20:34:48.526Z,150388.94
2023-04-20T20:37:15.747Z,150401.56
2023-04-20T20:39:42.384Z,150380.06
2023-04-20T20:42:09.595Z,150385.16
2023-04-20T20:44:39.101Z,150353.59
2023-04-20T20:47:05.970Z,150332.16
2023-04-20T20:49:31.960Z,150364.97
2023-04-20T20:51:57.871Z,150340.97
2023-04-20T20:54:23.694Z,150335.94
2023-04-20T20:56:49.670Z,150366.22
2023-04-20T20:59:15.665Z,150386.41
2023-04-20T21:01:41.640Z,150375.03
2023-04-20T21:04:07.782Z,150391.44
2023-04-20T21:06:33.762Z,150390.19
2023-04-20T21:09:00.261Z,150401.56
2023-04-20T21:11:26.083Z,150388.94
2023-04-20T21:13:51.971Z,150366.22
2023-04-20T21:16:17.768Z,150371.25
2023-04-20T21:18:43.574Z,150327.13
2023-04-20T21:21:12.782Z,150315.75
2023-04-20T21:23:38.579Z,150323.28
2023-04-20T21:26:06.249Z,150311.97
2023-04-20T21:28:32.083Z,150293.06
2023-04-20T21:30:57.904Z,150299.34
2023-04-20T21:33:23.807Z,150338.44
2023-04-20T21:35:49.610Z,150339.69
2023-04-20T21:38:15.405Z,150339.69
2023-04-20T21:40:41.223Z,150335.94
2023-04-20T21:43:06.989Z,150323.28
2023-04-20T21:45:32.794Z,150343.47
2023-04-20T21:47:58.563Z,150366.22
2023-04-20T21:50:26.321Z,150346.03
2023-04-20T21:52:53.541Z,150373.78
2023-04-20T21:55:19.914Z,150361.16
2023-04-20T21:57:45.752Z,150340.97
2023-04-20T22:00:11.905Z,150368.75
2023-04-20T22:02:37.850Z,150364.97
2023-04-20T22:05:04.633Z,150361.16
2023-04-20T22:07:31.943Z,150395.22
2023-04-20T22:10:00.026Z,150395.22
2023-04-20T22:12:38.380Z,150364.97
2023-04-20T22:15:10.281Z,150391.44
2023-04-20T22:17:39.808Z,150378.81
2023-04-20T22:20:08.650Z,150356.09
2023-04-20T22:22:36.177Z,150366.22
2023-04-20T22:25:03.696Z,150364.97
2023-04-20T22:27:30.221Z,150353.59
2023-04-20T22:29:56.217Z,150367.50
2023-04-20T22:32:22.083Z,150353.59
2023-04-20T22:34:47.998Z,150378.81
2023-04-20T22:37:13.815Z,150364.97
2023-04-20T22:39:39.567Z,150385.16
2023-04-20T22:42:05.381Z,150353.59
2023-04-20T22:44:31.156Z,150380.06
2023-04-20T22:46:57.267Z,150375.03
2023-04-20T22:49:29.565Z,150392.69
2023-04-20T22:51:56.820Z,150366.22
2023-04-20T22:54:25.661Z,150346.03
2023-04-20T22:56:51.457Z,150343.47
2023-04-20T22:59:17.361Z,150344.78
2023-04-20T23:01:43.434Z,150358.63
2023-04-20T23:04:09.435Z,150361.16
2023-04-20T23:06:35.610Z,150370.00
2023-04-20T23:09:03.432Z,150359.88
2023-04-20T23:11:29.347Z,150370.00
2023-04-20T23:13:55.260Z,150352.34
2023-04-20T23:16:22.423Z,150347.31
2023-04-20T23:18:48.384Z,150332.16
2023-04-20T23:21:16.024Z,150337.19
2023-04-20T23:23:41.875Z,150333.41
2023-04-20T23:26:07.684Z,150373.78
2023-04-20T23:28:33.514Z,150381.38
2023-04-20T23:30:59.305Z,150382.63
2023-04-20T23:33:25.053Z,150363.72
2023-04-20T23:35:50.918Z,150367.50
2023-04-20T23:38:17.523Z,150370.00
2023-04-20T23:40:43.360Z,150367.50
2023-04-20T23:43:09.163Z,150363.72
2023-04-20T23:45:34.941Z,150363.72
2023-04-20T23:48:00.847Z,150342.22
2023-04-20T23:50:26.633Z,150346.03
2023-04-20T23:52:52.467Z,150300.59
2023-04-20T23:55:18.274Z,150309.47
2023-04-20T23:57:46.056Z,150324.56
